Napier (NZNR)

Aerodrome — Elev 6
New Zealand
S039.27.56.999 E176.52.12.000
Loading chart...

Current Weather

NZNR 211800Z 36010KT 25KM BKN034 12/07 Q0983 RMK ALT VATSIM USE ONLY

Published 51 minutes ago

Airport Activity

Loading chart...
Loading chart...

Positions

CallsignRadio Name / Freq / Voice Room / TypeFrequencyVoice RoomType
NZOH_CTR Ohakea Control
125.100
nzoh_ctr
125.100nzoh_ctr
NZNR_TWR Napier Tower
124.800
nznr_twr
124.800nznr_twr
NZNR_ATIS Napier ATIS
121.800
nznr_atis
121.800nznr_atis
UNICOM NZZC UNICOM
122.800
unicom_nzzc
122.800unicom_nzzc

Charts